createdAt,value
2022-10-23T00:00:16.464Z,37.10
2022-10-23T00:10:23.428Z,43.60
2022-10-23T00:20:29.473Z,40.50
2022-10-23T00:30:35.153Z,37.30
2022-10-23T00:40:42.362Z,35.50
2022-10-23T00:50:49.934Z,32.80
2022-10-23T01:00:57.853Z,37.20
2022-10-23T01:11:11.578Z,37.00
2022-10-23T01:21:23.263Z,30.00
2022-10-23T01:31:37.826Z,35.80
2022-10-23T01:41:48.110Z,30.70
2022-10-23T01:51:57.831Z,32.90
2022-10-23T02:02:07.398Z,30.50
2022-10-23T02:22:44.604Z,37.60
2022-10-23T02:32:53.401Z,37.10
2022-10-23T02:43:03.861Z,35.50
2022-10-23T02:53:17.593Z,41.60
2022-10-23T03:03:28.721Z,36.60
2022-10-23T03:13:34.434Z,39.50
2022-10-23T03:23:40.554Z,39.00
2022-10-23T03:33:46.454Z,39.10
2022-10-23T03:43:52.354Z,41.10
2022-10-23T03:53:58.146Z,42.20
2022-10-23T04:04:04.156Z,39.70
2022-10-23T04:14:12.146Z,41.20
2022-10-23T04:24:17.906Z,42.20
2022-10-23T04:34:24.015Z,43.80
2022-10-23T04:44:29.850Z,47.00
2022-10-23T04:54:39.872Z,46.50
2022-10-23T05:04:45.513Z,42.60
2022-10-23T05:14:51.180Z,44.80
2022-10-23T05:24:57.815Z,41.00
2022-10-23T05:35:06.871Z,41.10
2022-10-23T05:45:13.834Z,31.40
2022-10-23T05:55:19.913Z,35.50
2022-10-23T06:05:25.857Z,27.60
2022-10-23T06:15:31.542Z,26.20
2022-10-23T06:25:37.368Z,25.40
2022-10-23T06:35:43.040Z,26.30
2022-10-23T06:45:49.587Z,25.40
2022-10-23T06:55:59.629Z,24.80
2022-10-23T07:06:07.141Z,25.20
2022-10-23T07:16:15.611Z,24.10
2022-10-23T07:26:21.930Z,22.70
2022-10-23T07:36:27.867Z,21.60
2022-10-23T07:46:33.829Z,21.40
2022-10-23T07:56:39.896Z,17.90
2022-10-23T08:06:45.785Z,21.40
2022-10-23T08:16:51.921Z,18.20
2022-10-23T08:26:58.781Z,17.50
2022-10-23T08:37:04.711Z,17.20
2022-10-23T08:47:15.150Z,17.70
2022-10-23T08:57:24.626Z,16.90
2022-10-23T09:07:41.526Z,16.30
2022-10-23T09:17:49.053Z,14.30
2022-10-23T09:27:58.200Z,15.60
2022-10-23T09:38:06.335Z,15.80
2022-10-23T09:48:17.797Z,14.00
2022-10-23T09:58:33.859Z,15.60
2022-10-23T10:08:45.655Z,13.20
2022-10-23T10:18:58.744Z,13.10
2022-10-23T10:29:23.369Z,12.80
2022-10-23T10:39:42.371Z,12.30
2022-10-23T10:49:57.018Z,12.20
2022-10-23T11:00:06.846Z,11.40
2022-10-23T11:10:20.458Z,10.50
2022-10-23T11:20:51.126Z,11.20
2022-10-23T11:31:18.313Z,11.80
2022-10-23T11:41:28.691Z,13.50
2022-10-23T11:51:36.744Z,10.70
2022-10-23T12:01:46.088Z,8.00
2022-10-23T12:12:02.877Z,8.90
2022-10-23T12:22:12.550Z,8.30
2022-10-23T12:32:34.522Z,8.80
2022-10-23T12:42:41.231Z,7.10
2022-10-23T12:52:56.784Z,6.30
2022-10-23T13:03:05.458Z,8.30
2022-10-23T13:13:14.764Z,10.30
2022-10-23T13:23:27.350Z,6.50
2022-10-23T13:33:38.230Z,7.60
2022-10-23T13:43:45.447Z,7.90
2022-10-23T13:53:52.855Z,5.00
2022-10-23T14:04:01.120Z,7.30
2022-10-23T14:24:13.010Z,6.10
2022-10-23T14:34:19.582Z,8.90
2022-10-23T14:44:26.618Z,7.40
2022-10-23T14:54:34.738Z,7.50
2022-10-23T15:14:46.222Z,11.10
2022-10-23T15:24:52.912Z,17.10
2022-10-23T15:35:00.311Z,24.00
2022-10-23T15:45:07.314Z,22.90
2022-10-23T15:55:13.456Z,20.80
2022-10-23T16:05:19.841Z,21.20
2022-10-23T16:15:26.126Z,22.20
2022-10-23T16:35:40.029Z,22.30
2022-10-23T16:45:46.323Z,24.80
2022-10-23T16:55:52.646Z,24.50
2022-10-23T17:06:04.170Z,35.80
2022-10-23T17:16:15.836Z,26.60
2022-10-23T17:26:23.944Z,30.10
2022-10-23T17:46:34.358Z,32.30
2022-10-23T17:56:41.393Z,42.50
2022-10-23T18:06:49.637Z,25.50
2022-10-23T18:16:55.645Z,30.50
2022-10-23T18:27:01.526Z,31.70
2022-10-23T18:37:07.463Z,32.90
2022-10-23T18:47:13.309Z,37.10
2022-10-23T18:57:19.236Z,37.20
2022-10-23T19:07:25.267Z,37.50
2022-10-23T19:17:33.763Z,46.10
2022-10-23T19:27:40.570Z,42.70
2022-10-23T19:37:46.605Z,37.10
2022-10-23T19:47:52.590Z,37.90
2022-10-23T19:57:58.467Z,33.70
2022-10-23T20:08:04.308Z,32.10
2022-10-23T20:18:10.316Z,34.90
2022-10-23T20:28:16.301Z,38.10
2022-10-23T20:38:22.909Z,37.40
2022-10-23T20:48:28.649Z,32.50
2022-10-23T20:58:34.451Z,29.50
2022-10-23T21:08:40.939Z,30.70
2022-10-23T21:18:47.650Z,29.80
2022-10-23T21:29:01.130Z,28.00
2022-10-23T21:39:21.496Z,29.90
2022-10-23T21:49:27.212Z,29.20
2022-10-23T21:59:35.928Z,31.10
2022-10-23T22:09:42.703Z,29.40
2022-10-23T22:19:49.016Z,25.80
2022-10-23T22:29:54.912Z,26.60
2022-10-23T22:40:01.857Z,25.80
2022-10-23T22:50:09.500Z,29.00
2022-10-23T23:00:17.388Z,29.20
2022-10-23T23:10:23.142Z,28.50
2022-10-23T23:20:29.004Z,24.60
2022-10-23T23:30:34.691Z,24.60
2022-10-23T23:40:40.866Z,25.20
2022-10-23T23:50:46.684Z,24.40
